Time;durP1;ratioP1;P1;durP2;ratioP2;P2;SDS_P1;SDS_P2;PMS_P1;PMS_P2;Temp;Humidity;BMP_temperature;BMP_pressure;BME280_temperature;BME280_humidity;BME280_pressure;Samples;Min_cycle;Max_cycle;Signal;HPM_P1;HPM_P2
2021/01/05 00:00:33;;;;;;;18.52;12.10;;;;;;;5.88;69.13;100767.19;1737734;82;21606;-65
2021/01/05 00:03:01;;;;;;;19.80;13.20;;;;;;;5.88;69.12;100778.53;1738948;81;21578;-67
2021/01/05 00:05:29;;;;;;;22.37;13.20;;;;;;;5.87;69.13;100781.11;1736799;82;21151;-66
2021/01/05 00:07:56;;;;;;;18.50;12.60;;;;;;;5.87;69.12;100767.62;1737558;82;21582;-65
2021/01/05 00:10:24;;;;;;;17.65;11.80;;;;;;;5.86;69.03;100764.57;1737295;82;21183;-65
2021/01/05 00:12:52;;;;;;;20.55;13.48;;;;;;;5.71;69.43;100754.80;1737252;82;21143;-64
2021/01/05 00:15:19;;;;;;;19.55;11.73;;;;;;;5.66;69.49;100753.41;1740394;81;21192;-65
2021/01/05 00:17:46;;;;;;;19.92;13.35;;;;;;;5.62;69.61;100749.00;1738043;82;21681;-63
2021/01/05 00:20:24;;;;;;;18.15;12.15;;;;;;;5.61;69.67;100751.16;1736834;82;21099;-67
2021/01/05 00:22:53;;;;;;;18.85;12.98;;;;;;;5.61;69.64;100745.93;1745721;81;21284;-64
2021/01/05 00:25:21;;;;;;;21.85;12.85;;;;;;;5.60;69.70;100750.70;1737634;82;21153;-64
2021/01/05 00:27:48;;;;;;;17.85;12.85;;;;;;;5.60;69.63;100757.23;1737621;82;21606;-65
2021/01/05 00:30:20;;;;;;;23.47;14.00;;;;;;;5.58;69.72;100758.95;1736801;82;21143;-68
2021/01/05 00:32:50;;;;;;;19.48;13.13;;;;;;;5.56;69.72;100741.07;1748290;81;21167;-68
2021/01/05 00:35:21;;;;;;;17.25;11.85;;;;;;;5.65;69.48;100741.65;1768700;81;21647;-68
2021/01/05 00:37:49;;;;;;;15.85;12.23;;;;;;;5.64;69.49;100739.89;1761527;81;21681;-67
2021/01/05 00:40:18;;;;;;;17.15;12.07;;;;;;;5.74;69.13;100736.97;1737824;81;21617;-67
2021/01/05 00:42:45;;;;;;;18.25;13.13;;;;;;;5.66;69.28;100735.57;1736163;82;21598;-67
2021/01/05 00:45:19;;;;;;;22.73;13.78;;;;;;;5.73;69.10;100726.97;1737921;82;21196;-67
2021/01/05 00:47:51;;;;;;;18.98;12.75;;;;;;;5.79;69.04;100723.55;1834575;77;22138;-64
2021/01/05 00:50:19;;;;;;;17.92;12.78;;;;;;;5.73;68.93;100715.21;1792463;78;21126;-64
2021/01/05 00:52:47;;;;;;;19.07;12.73;;;;;;;5.56;69.37;100708.43;1708348;81;21158;-64
2021/01/05 00:55:15;;;;;;;20.00;13.13;;;;;;;5.52;69.46;100715.77;1732174;82;21198;-63
2021/01/05 00:57:45;;;;;;;17.40;12.90;;;;;;;5.50;69.38;100705.77;1752897;81;21483;-64
2021/01/05 01:00:20;;;;;;;21.10;14.13;;;;;;;5.48;69.50;100700.50;1735609;81;21162;-68
2021/01/05 01:02:50;;;;;;;19.85;12.75;;;;;;;5.62;69.13;100700.68;1722778;83;21302;-66
2021/01/05 01:05:18;;;;;;;20.30;12.33;;;;;;;5.53;69.14;100693.16;1724218;81;21307;-66
2021/01/05 01:07:46;;;;;;;16.25;12.58;;;;;;;5.61;68.92;100682.40;1708367;82;21162;-65
2021/01/05 01:10:16;;;;;;;15.98;12.20;;;;;;;5.53;69.16;100674.88;1713509;82;21150;-64
2021/01/05 01:12:44;;;;;;;17.75;12.37;;;;;;;5.58;69.02;100670.60;1737218;82;21190;-67
2021/01/05 01:15:14;;;;;;;23.05;14.23;;;;;;;5.57;68.96;100661.88;1737591;81;21154;-66
2021/01/05 01:17:42;;;;;;;20.68;12.25;;;;;;;5.56;69.01;100661.42;1710309;81;21165;-66
2021/01/05 01:20:12;;;;;;;21.62;14.58;;;;;;;5.62;68.87;100651.06;1710699;81;21186;-65
2021/01/05 01:36:13;;;;;;;22.77;16.32;;;;;;;5.33;70.32;100649.38;1834813;77;22140;-62
2021/01/05 01:38:41;;;;;;;21.02;14.87;;;;;;;5.44;69.97;100645.19;1780427;79;21163;-65
2021/01/05 01:41:08;;;;;;;20.32;14.65;;;;;;;5.45;69.92;100639.55;1761775;81;21131;-65
2021/01/05 01:43:38;;;;;;;19.62;13.95;;;;;;;5.31;70.18;100637.63;1755960;81;21147;-68
2021/01/05 01:46:11;;;;;;;18.25;13.10;;;;;;;5.34;69.96;100638.08;1761984;81;21154;-65
2021/01/05 01:48:41;;;;;;;20.77;13.65;;;;;;;5.32;70.04;100636.77;1747017;81;21174;-66
2021/01/05 01:51:10;;;;;;;19.77;13.83;;;;;;;5.34;70.03;100634.16;1736912;80;21158;-65
2021/01/05 01:54:19;;;;;;;18.73;13.80;;;;;;;5.53;69.61;100635.72;1762090;80;21310;-67
2021/01/05 01:57:38;;;;;;;17.50;13.15;;;;;;;5.41;69.84;100629.48;1757226;81;21537;-67
2021/01/05 02:00:35;;;;;;;18.60;12.78;;;;;;;5.35;69.95;100632.00;1761192;80;21192;-66
2021/01/05 02:03:27;;;;;;;18.80;12.85;;;;;;;5.32;70.02;100625.44;1717583;83;21447;-67
2021/01/05 02:17:37;;;;;;;20.40;15.38;;;;;;;5.35;70.79;100596.77;1826523;77;22185;-65
2021/01/05 02:20:13;;;;;;;21.48;14.50;;;;;;;5.38;70.61;100592.03;1789699;80;21561;-64
2021/01/05 02:22:55;;;;;;;19.27;13.53;;;;;;;5.38;70.59;100590.72;1754642;81;21138;-67
2021/01/05 02:26:03;;;;;;;22.07;14.23;;;;;;;5.38;70.42;100594.64;1734774;81;21206;-68
2021/01/05 02:28:43;;;;;;;18.27;12.80;;;;;;;5.43;70.26;100583.38;1774532;81;21095;-66
2021/01/05 02:31:51;;;;;;;23.55;12.43;;;;;;;5.59;69.89;100580.52;1774289;81;21172;-68
2021/01/05 02:34:55;;;;;;;21.33;13.30;;;;;;;5.41;70.33;100573.80;1749093;81;21150;-64
2021/01/05 02:38:13;;;;;;;17.05;11.75;;;;;;;5.32;70.61;100581.06;1774373;81;21213;-68
2021/01/05 02:41:30;;;;;;;18.60;11.35;;;;;;;5.29;70.83;100583.66;1774260;81;21636;-64
2021/01/05 02:44:42;;;;;;;16.95;11.43;;;;;;;5.34;70.63;100575.02;1728924;81;21145;-64
2021/01/05 02:48:08;;;;;;;28.83;22.67;;;;;;;5.38;70.61;100571.14;1819272;77;31495;-63
2021/01/05 02:51:05;;;;;;;20.60;14.07;;;;;;;5.35;70.62;100573.27;1761160;80;21119;-66
2021/01/05 02:54:12;;;;;;;16.35;11.50;;;;;;;5.37;70.63;100565.03;1762195;81;21727;-65
2021/01/05 02:57:25;;;;;;;20.52;12.73;;;;;;;5.36;70.69;100573.72;1762113;81;21174;-68
2021/01/05 03:00:43;;;;;;;17.17;11.22;;;;;;;5.38;70.69;100577.23;1730460;80;21188;-65
2021/01/05 03:03:46;;;;;;;18.32;11.15;;;;;;;5.34;70.83;100575.44;1740643;81;21552;-64
2021/01/05 03:06:47;;;;;;;19.62;12.70;;;;;;;5.31;70.93;100565.84;1761795;81;21158;-67
2021/01/05 03:09:56;;;;;;;20.25;11.30;;;;;;;5.25;71.24;100557.94;1756497;81;21260;-67
2021/01/05 03:13:10;;;;;;;22.17;12.10;;;;;;;5.29;71.21;100554.52;1733365;82;21162;-67
2021/01/05 03:16:07;;;;;;;19.80;11.88;;;;;;;5.30;71.22;100551.05;1759633;81;21178;-67
2021/01/05 03:19:11;;;;;;;19.42;11.38;;;;;;;5.32;71.29;100553.66;1752515;81;21118;-63
2021/01/05 03:21:59;;;;;;;17.10;10.03;;;;;;;5.34;71.29;100554.55;1735819;81;21154;-69
2021/01/05 03:24:45;;;;;;;17.70;10.50;;;;;;;5.35;71.29;100561.52;1746065;80;21151;-65
2021/01/05 03:27:31;;;;;;;15.50;9.83;;;;;;;5.33;71.40;100551.50;1740597;81;21139;-67
2021/01/05 03:30:32;;;;;;;17.15;10.35;;;;;;;5.34;71.36;100553.25;1735247;81;21585;-65
2021/01/05 03:33:18;;;;;;;;;;;;;;;5.33;71.42;100548.88;1764618;81;21187;-68
2021/01/05 03:36:06;;;;;;;14.05;9.35;;;;;;;5.37;71.45;100551.98;1761297;81;20150;-68
2021/01/05 03:38:41;;;;;;;14.28;9.78;;;;;;;5.44;71.51;100544.67;1827512;77;22111;-67
2021/01/05 03:41:29;;;;;;;16.67;11.28;;;;;;;5.41;71.47;100547.25;1755639;80;21272;-64
2021/01/05 03:44:15;;;;;;;18.02;11.18;;;;;;;5.38;71.60;100539.83;1657985;84;21295;-67
2021/01/05 03:47:02;;;;;;;18.25;11.88;;;;;;;5.40;71.59;100543.33;1722262;82;21605;-68
2021/01/05 03:49:48;;;;;;;19.60;11.85;;;;;;;5.38;71.64;100531.55;1723255;83;21187;-65
2021/01/05 03:52:34;;;;;;;15.18;11.43;;;;;;;5.36;71.81;100534.56;1714971;84;21170;-65
2021/01/05 03:55:20;;;;;;;17.07;10.40;;;;;;;5.41;71.67;100548.55;1704670;83;21176;-69
2021/01/05 03:58:06;;;;;;;15.23;9.73;;;;;;;5.42;71.66;100552.05;1691598;85;21575;-67
2021/01/05 04:00:44;;;;;;;16.27;10.82;;;;;;;5.44;71.72;100547.73;1832366;77;22182;-67
2021/01/05 04:03:12;;;;;;;12.60;9.75;;;;;;;5.42;71.70;100555.97;1793010;80;21165;-67
2021/01/05 04:05:40;;;;;;;16.67;10.43;;;;;;;5.43;71.71;100552.50;1746146;81;21204;-65
2021/01/05 04:08:07;;;;;;;14.95;10.65;;;;;;;5.40;71.70;100552.02;1727372;83;21209;-66
2021/01/05 04:10:36;;;;;;;17.17;10.28;;;;;;;5.35;71.81;100560.22;1700687;84;21200;-66
2021/01/05 04:13:04;;;;;;;19.25;10.08;;;;;;;5.33;71.92;100557.61;1706459;83;21590;-68
2021/01/05 04:15:32;;;;;;;18.00;11.43;;;;;;;5.32;71.99;100551.94;1725039;83;21184;-67
2021/01/05 04:18:00;;;;;;;15.23;10.13;;;;;;;5.34;71.91;100549.33;1725019;83;21194;-67
2021/01/05 04:20:29;;;;;;;17.32;11.08;;;;;;;5.27;72.11;100541.87;1723112;83;21585;-67
2021/01/05 04:22:57;;;;;;;16.32;10.45;;;;;;;5.43;71.68;100550.75;1722073;83;21182;-68
2021/01/05 04:25:25;;;;;;;17.32;11.18;;;;;;;5.43;71.75;100559.03;1725067;83;21155;-68
2021/01/05 04:27:53;;;;;;;18.23;11.12;;;;;;;5.43;71.71;100557.72;1725047;83;21562;-68
2021/01/05 04:30:29;;;;;;;15.28;10.72;;;;;;;5.43;71.63;100550.75;1725243;83;21542;-68
2021/01/05 04:32:59;;;;;;;20.65;11.63;;;;;;;5.46;71.58;100542.09;1709085;83;21150;-66
2021/01/05 04:35:27;;;;;;;18.10;10.55;;;;;;;5.48;71.53;100546.91;1731099;83;21166;-67
2021/01/05 04:37:55;;;;;;;14.60;9.98;;;;;;;5.45;71.54;100535.13;1732912;81;21119;-66
2021/01/05 04:40:32;;;;;;;17.87;10.03;;;;;;;5.45;71.57;100528.59;1734475;81;21616;-64
2021/01/05 04:43:25;;;;;;;15.50;10.23;;;;;;;5.43;71.62;100525.95;1728955;83;21524;-67
2021/01/05 04:46:20;;;;;;;14.20;9.95;;;;;;;5.44;71.68;100526.84;1727905;83;21191;-68
2021/01/05 04:49:26;;;;;;;17.05;9.98;;;;;;;5.47;71.71;100531.66;1696562;81;21204;-67
2021/01/05 04:52:10;;;;;;;14.05;10.05;;;;;;;5.50;71.67;100534.30;1724876;83;22087;-68
2021/01/05 04:54:51;;;;;;;20.90;11.28;;;;;;;5.38;72.04;100528.94;1724920;83;21648;-64
2021/01/05 04:57:22;;;;;;;15.08;9.88;;;;;;;5.43;72.08;100515.95;1724318;83;21163;-67
2021/01/05 05:00:00;;;;;;;16.40;11.12;;;;;;;5.47;71.97;100522.52;1717535;81;21169;-64
2021/01/05 05:02:46;;;;;;;22.07;12.37;;;;;;;5.49;71.99;100516.88;1756739;81;21598;-69
2021/01/05 05:05:27;;;;;;;17.90;11.88;;;;;;;5.51;71.98;100513.86;1757060;81;21161;-68
2021/01/05 05:08:25;;;;;;;18.23;10.70;;;;;;;5.56;71.96;100519.56;1715865;83;21134;-69
2021/01/05 05:10:58;;;;;;;22.50;12.40;;;;;;;5.55;71.98;100518.67;1726110;82;21147;-66
2021/01/05 05:13:34;;;;;;;18.30;12.73;;;;;;;5.59;71.97;100518.30;1726484;83;21121;-66
2021/01/05 05:16:40;;;;;;;19.73;12.68;;;;;;;5.56;72.14;100510.43;1740177;81;21574;-67
2021/01/05 05:19:20;;;;;;;18.73;11.75;;;;;;;5.56;72.14;100507.37;1726117;83;21151;-68
2021/01/05 05:21:57;;;;;;;20.20;12.78;;;;;;;5.62;72.00;100500.91;1726122;82;21304;-68
2021/01/05 05:24:46;;;;;;;21.70;13.45;;;;;;;5.61;72.02;100500.91;1740644;81;21134;-64
2021/01/05 05:27:31;;;;;;;22.40;13.75;;;;;;;5.63;72.08;100510.94;1755343;81;21131;-68
2021/01/05 05:30:03;;;;;;;23.47;13.20;;;;;;;5.65;72.06;100514.45;1755424;81;21570;-69
2021/01/05 05:32:38;;;;;;;23.45;13.93;;;;;;;5.69;71.96;100524.06;1756106;82;21633;-69
2021/01/05 05:35:27;;;;;;;22.02;13.48;;;;;;;5.69;71.99;100520.56;1755193;81;21155;-69
2021/01/05 05:38:05;;;;;;;21.65;13.50;;;;;;;5.69;71.97;100516.23;1756222;81;21610;-65
2021/01/05 05:40:59;;;;;;;24.85;14.63;;;;;;;5.74;71.90;100528.02;1756056;82;21163;-69
2021/01/05 05:43:41;;;;;;;18.60;13.43;;;;;;;5.70;72.07;100527.53;1756496;81;21159;-69
2021/01/05 05:46:12;;;;;;;21.20;13.80;;;;;;;5.73;71.97;100515.81;1749536;82;21622;-69
2021/01/05 05:49:02;;;;;;;20.72;13.45;;;;;;;5.70;72.14;100507.95;1756148;82;21139;-67
2021/01/05 05:51:36;;;;;;;19.98;13.05;;;;;;;5.71;72.30;100503.17;1756329;81;21638;-70
2021/01/05 05:54:10;;;;;;;25.68;12.78;;;;;;;5.72;72.38;100508.84;1735882;81;21188;-66
2021/01/05 05:57:13;;;;;;;22.02;13.45;;;;;;;5.71;72.33;100505.78;1759333;81;21246;-69
2021/01/05 05:59:49;;;;;;;37.48;15.70;;;;;;;5.71;72.44;100507.98;1758323;80;21122;-65
2021/01/05 06:02:20;;;;;;;21.70;13.13;;;;;;;5.70;72.44;100512.76;1749115;82;21560;-65
2021/01/05 06:04:48;;;;;;;23.95;14.98;;;;;;;5.68;72.56;100512.28;1739587;82;21537;-66
2021/01/05 06:07:16;;;;;;;22.93;15.32;;;;;;;5.68;72.66;100509.67;1708804;82;21305;-70
2021/01/05 06:09:43;;;;;;;23.30;16.02;;;;;;;5.69;72.64;100513.62;1707876;82;21154;-67
2021/01/05 06:12:11;;;;;;;25.43;15.48;;;;;;;5.72;72.60;100522.80;1744344;82;21134;-69
2021/01/05 06:14:38;;;;;;;24.70;15.25;;;;;;;5.73;72.64;100528.87;1737830;82;21462;-68
2021/01/05 06:17:06;;;;;;;23.10;15.98;;;;;;;5.73;72.70;100528.46;1738996;82;21118;-68
2021/01/05 06:19:33;;;;;;;21.37;15.15;;;;;;;5.76;72.66;100532.37;1736242;82;21166;-69
2021/01/05 06:22:01;;;;;;;23.70;15.80;;;;;;;5.73;72.84;100538.02;1744190;82;21145;-65
2021/01/05 06:24:28;;;;;;;24.35;15.72;;;;;;;5.73;72.88;100536.30;1688319;85;21167;-69
2021/01/05 06:26:56;;;;;;;24.85;15.85;;;;;;;5.74;72.93;100536.71;1736638;82;21150;-70
2021/01/05 06:29:24;;;;;;;23.62;15.43;;;;;;;5.76;72.91;100538.05;1738120;82;21244;-69
2021/01/05 06:31:51;;;;;;;21.80;15.45;;;;;;;5.79;72.96;100540.70;1746167;82;21281;-65
2021/01/05 06:34:18;;;;;;;25.85;15.00;;;;;;;5.80;72.94;100535.47;1688054;85;21135;-65
2021/01/05 06:36:46;;;;;;;25.10;17.15;;;;;;;5.83;72.96;100533.75;1740288;82;21193;-66
2021/01/05 06:39:14;;;;;;;28.20;16.48;;;;;;;5.81;73.02;100530.69;1742782;82;21605;-66
2021/01/05 06:41:41;;;;;;;25.48;15.75;;;;;;;5.82;73.04;100536.81;1737550;82;21276;-69
2021/01/05 06:44:09;;;;;;;22.80;15.90;;;;;;;5.86;72.95;100528.56;1739390;82;21161;-66
2021/01/05 06:46:37;;;;;;;23.57;16.00;;;;;;;5.90;72.85;100524.70;1688014;85;21633;-69
2021/01/05 06:49:04;;;;;;;21.90;14.23;;;;;;;5.89;73.00;100518.14;1746677;81;21577;-67
2021/01/05 06:57:54;;;;;;;22.93;15.80;;;;;;;5.95;73.05;100523.02;1818724;77;25411;-68
2021/01/05 07:00:24;;;;;;;27.15;16.40;;;;;;;5.92;73.03;100528.63;1772987;79;21582;-65
2021/01/05 07:02:52;;;;;;;25.52;15.60;;;;;;;5.93;72.98;100514.28;1732031;81;21182;-68
2021/01/05 07:05:20;;;;;;;22.87;15.78;;;;;;;5.98;72.93;100502.97;1762063;80;21329;-68
2021/01/05 07:07:47;;;;;;;24.20;14.23;;;;;;;6.01;72.75;100504.33;1731950;81;21641;-68
2021/01/05 07:10:17;;;;;;;23.87;16.10;;;;;;;5.97;72.99;100508.64;1731399;81;21174;-68
2021/01/05 07:12:45;;;;;;;23.12;15.98;;;;;;;5.97;72.96;100512.56;1730983;82;21610;-65
2021/01/05 07:15:17;;;;;;;24.82;15.75;;;;;;;6.05;72.86;100513.95;1731597;81;21598;-65
2021/01/05 07:17:44;;;;;;;24.65;15.55;;;;;;;6.17;72.47;100523.20;1733742;81;21154;-70
2021/01/05 07:20:14;;;;;;;24.63;15.30;;;;;;;6.18;72.49;100517.12;1730563;83;21143;-65
2021/01/05 07:22:41;;;;;;;22.75;14.53;;;;;;;6.26;72.28;100510.63;1730672;82;21563;-66
2021/01/05 07:25:12;;;;;;;24.02;15.32;;;;;;;6.30;72.21;100515.47;1754355;81;21150;-69
2021/01/05 07:27:43;;;;;;;25.10;16.27;;;;;;;6.19;72.65;100514.95;1749752;81;21096;-65
2021/01/05 07:30:13;;;;;;;23.05;15.00;;;;;;;6.16;72.78;100517.98;1759571;81;21484;-67
2021/01/05 07:32:40;;;;;;;22.37;16.15;;;;;;;6.19;72.67;100511.03;1756468;81;21573;-65
2021/01/05 07:35:11;;;;;;;21.50;14.63;;;;;;;6.18;72.70;100505.36;1732075;81;21138;-69
2021/01/05 07:37:42;;;;;;;23.05;15.18;;;;;;;6.21;72.64;100508.00;1732758;81;21159;-67
2021/01/05 07:40:11;;;;;;;20.90;14.45;;;;;;;6.23;72.62;100513.22;1730876;83;21309;-69
2021/01/05 07:42:39;;;;;;;25.25;15.30;;;;;;;6.24;72.55;100509.33;1731624;81;21159;-69
2021/01/05 07:45:10;;;;;;;23.00;15.28;;;;;;;6.20;72.70;100510.58;1737558;81;21624;-65
2021/01/05 07:47:38;;;;;;;22.90;15.60;;;;;;;6.20;72.69;100507.55;1677106;84;21279;-66
2021/01/05 07:50:21;;;;;;;21.90;14.65;;;;;;;6.23;72.83;100504.08;1703097;84;21546;-69
2021/01/05 07:52:48;;;;;;;30.05;13.72;;;;;;;6.34;72.69;100500.25;1731616;83;21664;-70
2021/01/05 07:55:19;;;;;;;23.83;15.30;;;;;;;6.44;72.52;100492.89;1726926;83;21188;-70
2021/01/05 07:57:48;;;;;;;21.73;14.13;;;;;;;6.49;72.52;100488.57;1717288;83;21188;-67
2021/01/05 08:00:19;;;;;;;24.70;13.75;;;;;;;6.34;72.99;100499.80;1757604;80;21529;-69
2021/01/05 08:02:47;;;;;;;29.10;15.32;;;;;;;6.35;73.14;100502.01;1763258;80;21147;-68
2021/01/05 08:05:17;;;;;;;22.42;14.60;;;;;;;6.42;73.40;100490.70;1766151;80;21534;-66
2021/01/05 08:07:45;;;;;;;26.17;15.03;;;;;;;6.47;73.17;100496.84;1787678;80;21190;-69
2021/01/05 08:10:28;;;;;;;20.75;14.45;;;;;;;6.48;73.05;100493.80;1765314;80;21158;-65
2021/01/05 08:12:56;;;;;;;26.80;14.35;;;;;;;6.49;72.99;100483.34;1763011;80;21189;-68
2021/01/05 08:15:26;;;;;;;22.75;14.75;;;;;;;6.66;72.40;100479.52;1777783;80;21597;-67
2021/01/05 08:17:54;;;;;;;23.90;15.43;;;;;;;6.58;72.53;100466.85;1772100;80;21316;-68
2021/01/05 08:20:25;;;;;;;20.88;13.60;;;;;;;6.57;72.57;100473.36;1785505;80;21574;-72
2021/01/05 08:22:53;;;;;;;20.55;14.05;;;;;;;6.56;72.59;100464.66;1780467;80;21159;-66
2021/01/05 08:25:21;;;;;;;21.70;13.65;;;;;;;6.58;72.58;100462.93;1761696;80;21613;-69
2021/01/05 08:27:50;;;;;;;23.60;14.85;;;;;;;6.60;72.52;100475.58;1774603;80;21150;-69
2021/01/05 08:30:31;;;;;;;19.00;12.50;;;;;;;6.61;72.60;100482.98;1778554;80;21147;-66
2021/01/05 08:33:02;;;;;;;26.65;15.20;;;;;;;6.61;72.58;100497.36;1723588;82;21629;-70
2021/01/05 08:35:29;;;;;;;22.65;13.98;;;;;;;6.65;72.58;100498.69;1769801;80;21154;-66
2021/01/05 08:37:57;;;;;;;23.92;14.50;;;;;;;6.66;72.44;100493.89;1775917;80;21597;-70
2021/01/05 08:40:30;;;;;;;22.70;14.85;;;;;;;6.66;72.48;100486.05;1770800;80;21146;-66
2021/01/05 08:43:00;;;;;;;24.90;15.10;;;;;;;6.65;72.47;100488.22;1761967;80;21159;-70
2021/01/05 08:45:29;;;;;;;29.63;15.05;;;;;;;6.63;72.49;100485.17;1787115;80;21135;-68
2021/01/05 08:47:57;;;;;;;25.85;15.95;;;;;;;6.61;72.52;100496.95;1785247;80;21321;-66
2021/01/05 08:50:31;;;;;;;27.37;16.20;;;;;;;6.60;72.64;100487.77;1761169;80;21618;-70
2021/01/05 08:53:01;;;;;;;24.35;14.78;;;;;;;6.58;72.67;100485.58;1782575;80;21155;-68
2021/01/05 08:55:28;;;;;;;28.80;15.80;;;;;;;6.54;72.87;100492.09;1787572;80;21175;-71
2021/01/05 08:57:56;;;;;;;22.93;15.25;;;;;;;6.54;72.87;100492.09;1771979;80;21139;-65
2021/01/05 09:00:25;;;;;;;27.52;15.78;;;;;;;6.52;72.79;100486.42;1722449;82;21123;-66
2021/01/05 09:02:53;;;;;;;24.70;14.80;;;;;;;6.52;72.81;100482.50;1724740;82;21590;-70
2021/01/05 09:05:23;;;;;;;27.00;16.20;;;;;;;6.56;72.77;100475.13;1722505;83;21167;-66
2021/01/05 09:07:51;;;;;;;25.50;15.38;;;;;;;6.56;72.89;100486.89;1734380;82;21619;-66
2021/01/05 09:10:23;;;;;;;29.50;17.50;;;;;;;6.57;72.87;100485.13;1737063;82;21177;-66
2021/01/05 09:12:50;;;;;;;24.10;15.23;;;;;;;6.58;72.95;100476.00;1752170;82;21167;-70
2021/01/05 09:15:21;;;;;;;27.20;16.73;;;;;;;6.59;72.96;100467.30;1742351;81;21615;-66
2021/01/05 09:17:50;;;;;;;24.05;14.45;;;;;;;6.63;72.93;100469.48;1751315;81;21594;-67
2021/01/05 09:20:23;;;;;;;26.73;15.20;;;;;;;6.62;72.93;100458.16;1747692;82;21197;-68
2021/01/05 09:22:56;;;;;;;23.80;15.28;;;;;;;6.64;72.90;100455.53;1722524;83;21189;-67
2021/01/05 09:25:25;;;;;;;24.57;14.23;;;;;;;6.63;72.88;100453.34;1724057;82;21300;-67
2021/01/05 09:27:53;;;;;;;21.23;13.85;;;;;;;6.65;72.83;100449.44;1722750;83;21633;-68
2021/01/05 09:30:22;;;;;;;20.75;13.35;;;;;;;6.65;72.88;100445.52;1722498;83;21120;-69
2021/01/05 09:32:50;;;;;;;23.00;14.33;;;;;;;6.66;72.84;100449.88;1722847;83;21107;-67
2021/01/05 09:35:38;;;;;;;20.17;13.08;;;;;;;6.65;72.89;100444.20;1730934;81;21350;-69
2021/01/05 09:38:08;;;;;;;23.18;15.43;;;;;;;6.67;72.83;100442.47;1736048;81;21677;-66
2021/01/05 09:40:39;;;;;;;24.47;14.43;;;;;;;6.68;72.81;100437.23;1735632;82;21716;-67
2021/01/05 09:43:11;;;;;;;24.72;15.68;;;;;;;6.68;72.85;100443.78;1736040;81;21167;-71
2021/01/05 09:45:39;;;;;;;20.08;14.13;;;;;;;6.70;72.73;100438.56;1736228;81;21627;-66
2021/01/05 09:48:12;;;;;;;23.77;13.88;;;;;;;6.73;72.62;100442.51;1736166;83;21622;-65
2021/01/05 09:50:44;;;;;;;21.02;14.40;;;;;;;6.72;72.60;100441.17;1736183;81;21676;-70
2021/01/05 09:53:12;;;;;;;29.12;13.65;;;;;;;6.71;72.67;100435.08;1686975;84;21664;-66
2021/01/05 09:55:57;;;;;;;;;;;;;;;;;;;;;
2021/01/05 09:58:40;;;;;;;22.35;13.00;;;;;;;6.74;72.54;100442.95;1827751;77;22770;-67
2021/01/05 10:01:08;;;;;;;29.60;15.30;;;;;;;6.71;72.50;100442.94;1778636;78;21306;-72
2021/01/05 10:03:35;;;;;;;21.52;13.88;;;;;;;6.70;72.49;100429.41;1776383;80;21665;-71
2021/01/05 10:06:05;;;;;;;21.15;12.82;;;;;;;6.66;72.68;100428.50;1765746;80;21561;-71
2021/01/05 10:08:32;;;;;;;21.73;13.10;;;;;;;6.68;72.67;100420.23;1784488;80;21178;-67
2021/01/05 10:11:00;;;;;;;19.60;14.03;;;;;;;6.76;72.44;100425.94;1790142;79;21558;-67
2021/01/05 10:13:28;;;;;;;18.55;13.03;;;;;;;6.74;72.40;100412.87;1802337;78;21630;-72
2021/01/05 10:15:55;;;;;;;19.52;12.25;;;;;;;6.64;72.71;100406.70;1724991;82;21581;-69
2021/01/05 10:18:27;;;;;;;21.00;13.75;;;;;;;6.63;72.72;100402.34;1714412;82;21149;-73
2021/01/05 10:20:55;;;;;;;18.42;12.78;;;;;;;6.61;72.80;100393.64;1730675;82;21652;-67
2021/01/05 10:23:22;;;;;;;20.60;13.60;;;;;;;6.63;72.84;100393.63;1729796;81;21276;-71
2021/01/05 10:25:50;;;;;;;20.55;13.43;;;;;;;6.59;73.01;100387.53;1720680;83;21322;-71
2021/01/05 10:28:19;;;;;;;19.32;12.58;;;;;;;6.60;72.99;100395.81;1718019;83;21188;-68
2021/01/05 10:30:47;;;;;;;20.60;12.47;;;;;;;6.62;72.97;100385.34;1727393;81;21194;-68
2021/01/05 10:33:14;;;;;;;18.98;13.48;;;;;;;6.64;72.93;100383.16;1724148;82;21233;-69
2021/01/05 10:35:42;;;;;;;19.87;11.63;;;;;;;6.65;72.90;100382.74;1727015;82;21221;-69
2021/01/05 10:38:09;;;;;;;18.75;12.25;;;;;;;6.60;73.09;100397.54;1729445;82;21599;-67
2021/01/05 10:40:37;;;;;;;20.02;11.53;;;;;;;6.55;73.21;100390.99;1732136;81;21628;-66
2021/01/05 10:43:04;;;;;;;17.30;11.70;;;;;;;6.53;73.25;100397.95;1710567;83;21599;-66
2021/01/05 10:45:32;;;;;;;19.50;11.85;;;;;;;6.54;73.19;100383.56;1745176;82;21667;-68
2021/01/05 10:48:00;;;;;;;19.17;11.65;;;;;;;6.54;73.21;100384.02;1696917;82;22980;-68
2021/01/05 10:50:28;;;;;;;18.77;11.73;;;;;;;6.67;72.78;100375.78;1742350;81;21606;-66
2021/01/05 10:52:55;;;;;;;20.60;10.88;;;;;;;6.66;72.67;100378.81;1746670;81;21159;-68
2021/01/05 10:55:23;;;;;;;19.20;11.57;;;;;;;6.65;72.66;100363.98;1723185;82;21187;-68
2021/01/05 10:57:51;;;;;;;19.98;10.80;;;;;;;6.69;72.52;100354.42;1714909;82;21628;-68
2021/01/05 11:00:20;;;;;;;16.97;10.80;;;;;;;6.66;72.60;100346.12;1690568;83;21190;-66
2021/01/05 11:02:48;;;;;;;20.23;10.50;;;;;;;6.66;72.58;100331.73;1725855;82;21194;-65
2021/01/05 11:05:17;;;;;;;20.10;10.15;;;;;;;6.66;72.61;100323.88;1721809;82;21190;-66
2021/01/05 11:07:50;;;;;;;18.45;10.88;;;;;;;6.63;72.68;100329.10;1715334;82;21206;-68
2021/01/05 11:10:20;;;;;;;17.23;10.90;;;;;;;6.57;73.00;100338.27;1700865;83;21180;-71
2021/01/05 11:12:49;;;;;;;19.27;10.80;;;;;;;6.56;73.02;100332.59;1722720;82;21177;-70
2021/01/05 11:15:18;;;;;;;20.37;11.63;;;;;;;6.58;72.96;100342.63;1712692;82;22705;-70
2021/01/05 11:17:46;;;;;;;18.52;10.45;;;;;;;6.64;72.80;100346.99;1697266;82;21208;-68
2021/01/05 11:20:15;;;;;;;16.52;10.23;;;;;;;6.64;72.74;100343.92;1694397;82;21149;-70
2021/01/05 11:22:43;;;;;;;18.27;10.03;;;;;;;6.64;72.74;100338.70;1730820;82;21606;-71
2021/01/05 11:25:15;;;;;;;15.85;10.50;;;;;;;6.63;72.69;100330.41;1734172;81;21169;-67
2021/01/05 11:27:42;;;;;;;19.85;10.72;;;;;;;6.63;72.68;100335.64;1696857;84;21616;-70
2021/01/05 11:30:14;;;;;;;19.92;11.00;;;;;;;6.70;72.54;100328.25;1697396;82;21283;-68
2021/01/05 11:32:41;;;;;;;17.40;10.38;;;;;;;6.68;72.64;100332.61;1672873;83;21150;-70
2021/01/05 11:35:14;;;;;;;19.60;10.75;;;;;;;6.70;72.61;100335.25;1720774;81;21630;-68
2021/01/05 11:37:43;;;;;;;24.18;11.55;;;;;;;6.69;72.59;100318.66;1706796;83;21157;-69
2021/01/05 11:40:18;;;;;;;18.62;10.48;;;;;;;6.68;72.62;100314.75;1721615;82;21610;-69
2021/01/05 11:42:48;;;;;;;20.12;11.60;;;;;;;6.75;72.43;100307.78;1719167;82;21289;-70
2021/01/05 11:45:18;;;;;;;22.32;11.33;;;;;;;6.78;72.34;100320.45;1718645;82;21316;-67
2021/01/05 11:47:46;;;;;;;20.85;11.28;;;;;;;6.83;72.25;100331.80;1738064;82;21207;-69
2021/01/05 11:50:14;;;;;;;22.93;11.65;;;;;;;6.84;72.17;100324.36;1731573;82;21222;-71
2021/01/05 11:52:42;;;;;;;18.85;11.12;;;;;;;6.92;71.95;100323.51;1727745;82;21681;-65
2021/01/05 11:55:11;;;;;;;18.32;10.60;;;;;;;6.95;71.85;100323.52;1707167;82;21180;-66
2021/01/05 11:57:39;;;;;;;20.97;11.10;;;;;;;6.93;71.90;100328.76;1724731;82;21352;-69
2021/01/05 12:00:11;;;;;;;21.07;11.35;;;;;;;6.89;71.95;100332.66;1717869;82;21517;-69
2021/01/05 12:02:38;;;;;;;19.27;11.08;;;;;;;6.89;71.89;100326.11;1713018;82;21574;-69
2021/01/05 12:05:08;;;;;;;20.55;11.90;;;;;;;6.88;71.94;100328.30;1698124;84;21611;-69
2021/01/05 12:07:35;;;;;;;24.37;13.00;;;;;;;6.77;72.24;100327.86;1709657;84;21718;-69
2021/01/05 12:10:04;;;;;;;22.82;13.28;;;;;;;6.80;72.19;100315.20;1698621;84;21339;-68
2021/01/05 12:12:32;;;;;;;22.60;13.43;;;;;;;6.75;72.27;100308.67;1729577;81;21174;-69
2021/01/05 12:15:00;;;;;;;21.30;12.20;;;;;;;6.75;72.27;100322.16;1696055;83;21331;-67
2021/01/05 12:17:28;;;;;;;21.75;13.50;;;;;;;6.70;72.34;100325.64;1699802;84;21338;-66
2021/01/05 12:19:58;;;;;;;24.35;14.43;;;;;;;6.72;72.33;100322.16;1682558;81;21281;-66
2021/01/05 12:22:26;;;;;;;24.90;13.45;;;;;;;6.69;72.27;100318.66;1725333;82;21190;-68
2021/01/05 12:24:54;;;;;;;24.30;14.58;;;;;;;6.67;72.37;100316.48;1722942;82;21349;-68